createdAt,value
2023-05-23T00:00:03.362Z,10.79
2023-05-23T00:02:29.793Z,10.76
2023-05-23T00:04:56.209Z,10.78
2023-05-23T00:07:22.581Z,10.67
2023-05-23T00:09:48.957Z,10.96
2023-05-23T00:12:15.337Z,10.80
2023-05-23T00:14:41.713Z,11.46
2023-05-23T00:17:08.221Z,11.50
2023-05-23T00:19:34.869Z,12.05
2023-05-23T00:22:01.390Z,11.40
2023-05-23T00:24:27.739Z,11.83
2023-05-23T00:26:54.148Z,12.26
2023-05-23T00:29:20.506Z,12.38
2023-05-23T00:31:47.236Z,12.36
2023-05-23T00:34:13.953Z,12.60
2023-05-23T00:36:40.374Z,11.69
2023-05-23T00:39:06.767Z,11.94
2023-05-23T00:41:33.138Z,11.92
2023-05-23T00:43:59.522Z,12.27
2023-05-23T00:46:25.936Z,12.37
2023-05-23T00:48:52.333Z,11.63
2023-05-23T00:51:18.706Z,11.81
2023-05-23T00:53:45.057Z,11.88
2023-05-23T00:56:11.421Z,11.61
2023-05-23T00:58:37.793Z,12.14
2023-05-23T01:01:04.179Z,12.53
2023-05-23T01:03:30.625Z,11.58
2023-05-23T01:05:57.041Z,11.77
2023-05-23T01:08:23.388Z,11.22
2023-05-23T01:10:49.727Z,11.70
2023-05-23T01:13:16.138Z,11.71
2023-05-23T01:15:42.782Z,11.74
2023-05-23T01:18:09.401Z,11.29
2023-05-23T01:20:35.792Z,11.37
2023-05-23T01:23:02.211Z,11.37
2023-05-23T01:25:28.593Z,11.16
2023-05-23T01:27:54.947Z,11.51
2023-05-23T01:30:21.337Z,11.13
2023-05-23T01:32:47.715Z,11.31
2023-05-23T01:35:14.088Z,11.41
2023-05-23T01:37:40.475Z,11.40
2023-05-23T01:40:06.850Z,11.44
2023-05-23T01:42:33.233Z,11.50
2023-05-23T01:44:59.768Z,11.44
2023-05-23T01:47:26.162Z,11.16
2023-05-23T01:49:52.541Z,11.13
2023-05-23T01:52:18.924Z,11.10
2023-05-23T01:54:45.328Z,11.27
2023-05-23T01:57:11.850Z,10.84
2023-05-23T01:59:38.262Z,11.01
2023-05-23T02:02:04.672Z,10.82
2023-05-23T02:04:31.087Z,11.64
2023-05-23T02:06:57.462Z,11.71
2023-05-23T02:09:23.832Z,11.19
2023-05-23T02:11:50.215Z,12.09
2023-05-23T02:14:16.592Z,11.78
2023-05-23T02:16:43.039Z,11.41
2023-05-23T02:19:09.432Z,11.55
2023-05-23T02:21:35.927Z,11.60
2023-05-23T02:24:02.295Z,11.40
2023-05-23T02:26:28.668Z,11.12
2023-05-23T02:28:55.061Z,10.99
2023-05-23T02:31:21.504Z,11.47
2023-05-23T02:33:47.957Z,11.43
2023-05-23T02:36:14.330Z,11.46
2023-05-23T02:38:40.715Z,11.62
2023-05-23T02:41:07.075Z,11.40
2023-05-23T02:43:33.449Z,11.33
2023-05-23T02:45:59.818Z,11.77
2023-05-23T02:48:26.200Z,11.77
2023-05-23T02:50:52.679Z,11.78
2023-05-23T02:53:19.050Z,11.43
2023-05-23T02:55:45.430Z,11.13
2023-05-23T02:58:11.795Z,11.33
2023-05-23T03:00:38.246Z,11.52
2023-05-23T03:03:04.826Z,11.22
2023-05-23T03:05:31.258Z,11.13
2023-05-23T03:07:57.603Z,11.32
2023-05-23T03:10:23.962Z,11.09
2023-05-23T03:12:50.317Z,11.06
2023-05-23T03:15:16.679Z,10.93
2023-05-23T03:17:43.062Z,11.17
2023-05-23T03:20:09.449Z,11.08
2023-05-23T03:22:35.790Z,11.29
2023-05-23T03:25:02.152Z,11.19
2023-05-23T03:27:28.518Z,11.25
2023-05-23T03:29:54.859Z,11.29
2023-05-23T03:32:21.238Z,11.57
2023-05-23T03:34:47.648Z,12.02
2023-05-23T03:37:13.989Z,11.44
2023-05-23T03:39:40.339Z,11.63
2023-05-23T03:42:06.697Z,11.68
2023-05-23T03:44:33.079Z,12.26
2023-05-23T03:46:59.428Z,11.80
2023-05-23T03:49:25.771Z,11.49
2023-05-23T03:51:52.116Z,11.61
2023-05-23T03:54:18.473Z,11.78
2023-05-23T03:56:44.816Z,11.84
2023-05-23T03:59:11.173Z,11.77
2023-05-23T04:01:37.521Z,11.85
2023-05-23T04:04:03.938Z,12.05
2023-05-23T04:06:30.389Z,12.43
2023-05-23T04:08:56.729Z,12.01
2023-05-23T04:11:24.100Z,12.30
2023-05-23T04:13:50.449Z,11.90
2023-05-23T04:16:16.911Z,12.23
2023-05-23T04:18:43.360Z,12.60
2023-05-23T04:21:09.756Z,12.39
2023-05-23T04:23:37.781Z,12.28
2023-05-23T04:26:04.181Z,12.81
2023-05-23T04:28:30.554Z,12.55
2023-05-23T04:30:56.960Z,12.63
2023-05-23T04:33:23.533Z,12.00
2023-05-23T04:35:49.885Z,12.23
2023-05-23T04:38:16.232Z,12.79
2023-05-23T04:40:42.617Z,12.99
2023-05-23T04:43:08.990Z,13.10
2023-05-23T04:45:35.342Z,13.74
2023-05-23T04:48:01.748Z,14.18
2023-05-23T04:50:28.138Z,13.74
2023-05-23T04:52:54.528Z,13.46
2023-05-23T04:55:21.052Z,13.59
2023-05-23T04:57:47.433Z,13.84
2023-05-23T05:00:13.802Z,14.55
2023-05-23T05:02:40.178Z,13.97
2023-05-23T05:05:06.549Z,14.03
2023-05-23T05:07:32.934Z,14.38
2023-05-23T05:10:01.055Z,14.79
2023-05-23T05:12:27.814Z,14.83
2023-05-23T05:14:54.234Z,14.70
2023-05-23T05:17:20.659Z,15.04
2023-05-23T05:19:47.092Z,14.70
2023-05-23T05:22:13.483Z,15.33
2023-05-23T05:24:39.856Z,15.02
2023-05-23T05:27:06.229Z,15.20
2023-05-23T05:29:32.645Z,14.88
2023-05-23T05:31:59.005Z,14.58
2023-05-23T05:34:25.367Z,14.86
2023-05-23T05:36:51.846Z,14.71
2023-05-23T05:39:18.229Z,14.73
2023-05-23T05:41:44.606Z,15.00
2023-05-23T05:44:10.964Z,14.85
2023-05-23T05:46:37.394Z,15.11
2023-05-23T05:49:03.805Z,15.23
2023-05-23T05:51:30.180Z,14.78
2023-05-23T05:53:56.539Z,15.12
2023-05-23T05:56:22.933Z,14.37
2023-05-23T05:58:49.332Z,13.94
2023-05-23T06:01:15.697Z,14.67
2023-05-23T06:03:42.283Z,14.47
2023-05-23T06:06:08.820Z,14.26
2023-05-23T06:08:35.179Z,14.19
2023-05-23T06:11:01.541Z,14.25
2023-05-23T06:13:27.913Z,14.07
2023-05-23T06:15:54.449Z,14.11
2023-05-23T06:18:20.871Z,14.41
2023-05-23T06:20:47.232Z,14.01
2023-05-23T06:23:13.590Z,13.79
2023-05-23T06:25:39.951Z,14.19
2023-05-23T06:28:06.335Z,14.14
2023-05-23T06:30:32.692Z,14.03
2023-05-23T06:32:59.105Z,13.83
2023-05-23T06:35:25.502Z,13.70
2023-05-23T06:37:51.878Z,14.26
2023-05-23T06:40:18.249Z,14.34
2023-05-23T06:42:45.683Z,13.66
2023-05-23T06:45:13.727Z,14.10
2023-05-23T06:47:42.223Z,13.79
2023-05-23T06:50:08.658Z,14.14
2023-05-23T06:52:35.051Z,14.04
2023-05-23T06:55:01.489Z,15.15
2023-05-23T06:57:27.861Z,14.11
2023-05-23T06:59:54.252Z,13.56
2023-05-23T07:02:20.711Z,13.46
2023-05-23T07:04:47.090Z,12.91
2023-05-23T07:07:13.471Z,13.15
2023-05-23T07:09:39.837Z,12.92
2023-05-23T07:12:06.197Z,13.27
2023-05-23T07:14:32.549Z,13.86
2023-05-23T07:16:58.957Z,13.21
2023-05-23T07:19:25.448Z,13.01
2023-05-23T07:21:51.858Z,13.15
2023-05-23T07:24:18.241Z,12.99
2023-05-23T07:26:44.620Z,13.23
2023-05-23T07:29:11.002Z,13.75
2023-05-23T07:31:37.446Z,13.80
2023-05-23T07:34:03.877Z,13.45
2023-05-23T07:36:30.279Z,13.65
2023-05-23T07:38:56.663Z,13.59
2023-05-23T07:41:23.049Z,13.69
2023-05-23T07:43:49.406Z,14.37
2023-05-23T07:46:15.780Z,14.02
2023-05-23T07:48:42.153Z,13.44
2023-05-23T07:51:08.527Z,13.45
2023-05-23T07:53:34.922Z,13.52
2023-05-23T07:56:01.286Z,13.28
2023-05-23T07:58:27.643Z,13.31
2023-05-23T08:00:54.000Z,13.44
2023-05-23T08:03:20.569Z,13.23
2023-05-23T08:05:47.059Z,13.46
2023-05-23T08:08:13.423Z,13.28
2023-05-23T08:10:39.933Z,12.86
2023-05-23T08:13:06.396Z,12.74
2023-05-23T08:15:32.774Z,12.62
2023-05-23T08:17:59.232Z,12.95
2023-05-23T08:20:25.627Z,14.02
2023-05-23T08:22:52.022Z,14.96
2023-05-23T08:25:18.415Z,15.20
2023-05-23T08:27:44.785Z,15.23
2023-05-23T08:30:11.209Z,14.80
2023-05-23T08:32:37.682Z,15.14
2023-05-23T08:35:04.096Z,15.10
2023-05-23T08:37:30.487Z,14.64
2023-05-23T08:39:56.850Z,14.62
2023-05-23T08:42:23.261Z,13.92
2023-05-23T08:44:51.382Z,14.38
2023-05-23T08:47:18.004Z,14.73
2023-05-23T08:49:44.367Z,13.58
2023-05-23T08:52:10.736Z,14.17
2023-05-23T08:54:37.098Z,14.24
2023-05-23T08:57:03.555Z,13.89
2023-05-23T08:59:29.941Z,13.46
2023-05-23T09:01:56.453Z,13.70
2023-05-23T09:04:22.892Z,13.79
2023-05-23T09:06:49.252Z,13.85
2023-05-23T09:09:15.634Z,13.62
2023-05-23T09:11:42.000Z,13.32
2023-05-23T09:14:08.461Z,13.15
2023-05-23T09:16:35.027Z,12.77
2023-05-23T09:19:01.551Z,12.53
2023-05-23T09:21:27.929Z,12.72
2023-05-23T09:23:54.278Z,12.68
2023-05-23T09:26:20.642Z,11.34
2023-05-23T09:28:47.082Z,11.31
2023-05-23T09:31:13.516Z,11.02
2023-05-23T09:33:39.885Z,10.57
2023-05-23T09:36:06.267Z,9.84
2023-05-23T09:38:32.641Z,9.43
2023-05-23T09:40:59.024Z,9.28
2023-05-23T09:43:25.403Z,10.14
2023-05-23T09:45:51.844Z,9.94
2023-05-23T09:48:18.232Z,9.73
2023-05-23T09:50:44.585Z,10.09
2023-05-23T09:53:10.936Z,10.05
2023-05-23T09:55:37.338Z,10.11
2023-05-23T09:58:03.692Z,10.76
2023-05-23T10:00:30.070Z,12.02
2023-05-23T10:02:56.495Z,11.53
2023-05-23T10:05:22.859Z,11.54
2023-05-23T10:07:49.211Z,11.50
2023-05-23T10:10:15.578Z,11.94
2023-05-23T10:12:42.011Z,12.23
2023-05-23T10:15:08.392Z,11.65
2023-05-23T10:17:34.796Z,11.42
2023-05-23T10:20:01.202Z,12.06
2023-05-23T10:22:27.586Z,12.50
2023-05-23T10:24:53.951Z,12.17
2023-05-23T10:27:20.317Z,11.50
2023-05-23T10:29:46.698Z,10.83
2023-05-23T10:32:14.979Z,11.49
2023-05-23T10:34:41.389Z,11.47
2023-05-23T10:37:07.781Z,10.61
2023-05-23T10:39:34.202Z,10.86
2023-05-23T10:42:00.580Z,11.15
2023-05-23T10:44:26.951Z,11.69
2023-05-23T10:46:53.380Z,10.40
2023-05-23T10:49:19.814Z,10.73
2023-05-23T10:51:46.182Z,11.12
2023-05-23T10:54:12.556Z,11.00
2023-05-23T10:56:38.916Z,10.60
2023-05-23T10:59:05.289Z,11.10
2023-05-23T11:01:31.714Z,11.52
2023-05-23T11:03:58.208Z,12.27
2023-05-23T11:06:24.669Z,12.24
2023-05-23T11:08:51.034Z,12.31
2023-05-23T11:11:17.395Z,11.69
2023-05-23T11:13:43.768Z,11.61
2023-05-23T11:16:10.210Z,11.84
2023-05-23T11:18:36.583Z,11.50
2023-05-23T11:21:02.949Z,11.77
2023-05-23T11:23:29.313Z,12.84
2023-05-23T11:25:55.695Z,13.69
2023-05-23T11:28:22.170Z,12.52
2023-05-23T11:30:48.564Z,12.36
2023-05-23T11:33:15.020Z,11.87
2023-05-23T11:35:41.577Z,12.12
2023-05-23T11:38:08.003Z,12.36
2023-05-23T11:40:34.384Z,11.22
2023-05-23T11:43:00.775Z,11.23
2023-05-23T11:45:27.213Z,12.30
2023-05-23T11:47:53.639Z,12.60
2023-05-23T11:50:20.057Z,12.43
2023-05-23T11:52:46.450Z,13.16
2023-05-23T11:55:12.894Z,13.30
2023-05-23T11:57:39.247Z,13.17
2023-05-23T12:00:05.611Z,13.38
2023-05-23T12:02:32.020Z,13.21
2023-05-23T12:04:58.529Z,12.84
2023-05-23T12:07:24.961Z,12.63
2023-05-23T12:09:51.341Z,13.38
2023-05-23T12:12:17.721Z,14.00
2023-05-23T12:14:44.117Z,13.39
2023-05-23T12:17:10.494Z,12.61
2023-05-23T12:19:36.950Z,12.65
2023-05-23T12:22:03.412Z,13.50
2023-05-23T12:24:29.812Z,14.04
2023-05-23T12:26:56.187Z,14.14
2023-05-23T12:29:22.548Z,13.82
2023-05-23T12:31:49.015Z,12.71
2023-05-23T12:34:15.486Z,10.87
2023-05-23T12:36:48.626Z,10.63
2023-05-23T12:39:15.945Z,10.31
2023-05-23T12:41:42.320Z,10.27
2023-05-23T12:44:08.676Z,10.31
2023-05-23T12:46:35.118Z,10.15
2023-05-23T12:49:01.509Z,11.07
2023-05-23T12:51:27.883Z,10.96
2023-05-23T12:53:54.249Z,10.95
2023-05-23T12:56:20.659Z,10.59
2023-05-23T12:58:47.033Z,11.09
2023-05-23T13:01:13.434Z,10.56
2023-05-23T13:03:39.849Z,10.22
2023-05-23T13:06:06.257Z,10.37
2023-05-23T13:08:32.654Z,10.60
2023-05-23T13:10:59.048Z,11.05
2023-05-23T13:13:25.416Z,10.88
2023-05-23T13:15:51.980Z,10.64
2023-05-23T13:18:18.604Z,10.60
2023-05-23T13:20:45.100Z,9.92
2023-05-23T13:23:11.476Z,10.85
2023-05-23T13:25:37.871Z,10.67
2023-05-23T13:28:04.343Z,10.62
2023-05-23T13:30:30.720Z,11.21
2023-05-23T13:32:57.152Z,10.64
2023-05-23T13:35:23.571Z,10.90
2023-05-23T13:37:49.951Z,11.10
2023-05-23T13:40:16.311Z,9.54
2023-05-23T13:42:42.700Z,9.37
2023-05-23T13:45:09.049Z,9.95
2023-05-23T13:47:35.416Z,9.70
2023-05-23T13:50:01.802Z,9.33
2023-05-23T13:52:28.159Z,10.04
2023-05-23T13:54:54.527Z,10.06
2023-05-23T13:57:20.894Z,11.69
2023-05-23T13:59:47.254Z,11.87
2023-05-23T14:02:15.843Z,12.08
2023-05-23T14:04:42.252Z,12.67
2023-05-23T14:07:08.614Z,11.24
2023-05-23T14:09:35.019Z,10.82
2023-05-23T14:12:01.365Z,10.32
2023-05-23T14:14:27.719Z,10.33
2023-05-23T14:16:54.111Z,10.05
2023-05-23T14:19:20.547Z,10.49
2023-05-23T14:21:46.974Z,9.87
2023-05-23T14:24:13.382Z,9.25
2023-05-23T14:26:39.764Z,9.38
2023-05-23T14:29:06.137Z,9.47
2023-05-23T14:31:32.589Z,9.89
2023-05-23T14:34:01.549Z,9.40
2023-05-23T14:36:30.589Z,8.95
2023-05-23T14:38:57.038Z,9.69
2023-05-23T14:41:23.401Z,10.01
2023-05-23T14:43:49.799Z,9.84
2023-05-23T14:46:16.209Z,10.11
2023-05-23T14:48:42.627Z,9.95
2023-05-23T14:51:08.987Z,10.16
2023-05-23T14:53:35.380Z,10.75
2023-05-23T14:56:01.753Z,10.54
2023-05-23T14:58:28.123Z,10.91
2023-05-23T15:00:54.591Z,11.40
2023-05-23T15:03:21.133Z,11.53
2023-05-23T15:05:48.952Z,11.11
2023-05-23T15:08:15.899Z,10.65
2023-05-23T15:10:42.369Z,11.25
2023-05-23T15:13:08.856Z,11.25
2023-05-23T15:15:35.330Z,11.43
2023-05-23T15:18:01.759Z,11.56
2023-05-23T15:20:28.177Z,11.14
2023-05-23T15:22:54.555Z,11.60
2023-05-23T15:25:33.932Z,12.25
2023-05-23T15:28:07.434Z,12.29
2023-05-23T15:30:33.781Z,12.62
2023-05-23T15:33:01.766Z,12.32
2023-05-23T15:35:28.341Z,12.42
2023-05-23T15:37:54.718Z,13.24
2023-05-23T15:40:22.490Z,12.96
2023-05-23T15:42:48.870Z,12.69
2023-05-23T15:45:15.250Z,12.82
2023-05-23T15:47:41.688Z,12.73
2023-05-23T15:50:08.096Z,12.99
2023-05-23T15:52:34.474Z,13.24
2023-05-23T15:55:00.847Z,12.92
2023-05-23T15:57:27.233Z,13.29
2023-05-23T16:00:01.024Z,13.79
2023-05-23T16:02:27.448Z,13.84
2023-05-23T16:04:53.895Z,13.84
2023-05-23T16:07:27.548Z,14.35
2023-05-23T16:09:53.927Z,14.64
2023-05-23T16:12:20.292Z,14.80
2023-05-23T16:14:46.678Z,24.38
2023-05-23T16:17:13.078Z,25.40
2023-05-23T16:19:39.545Z,16.42
2023-05-23T16:22:05.952Z,15.69
2023-05-23T16:24:32.334Z,16.03
2023-05-23T16:26:58.781Z,16.05
2023-05-23T16:29:25.175Z,15.70
2023-05-23T16:31:51.563Z,15.55
2023-05-23T16:34:17.975Z,15.38
2023-05-23T16:36:44.507Z,15.12
2023-05-23T16:39:10.881Z,15.20
2023-05-23T16:41:37.266Z,16.04
2023-05-23T16:44:03.625Z,21.31
2023-05-23T16:46:30.030Z,26.43
2023-05-23T16:48:56.485Z,53.11
2023-05-23T16:51:22.873Z,34.57
2023-05-23T16:53:49.263Z,17.89
2023-05-23T16:56:15.655Z,17.44
2023-05-23T16:58:42.027Z,17.24
2023-05-23T17:01:08.533Z,16.72
2023-05-23T17:03:35.134Z,16.88
2023-05-23T17:06:01.587Z,16.52
2023-05-23T17:08:27.960Z,16.39
2023-05-23T17:10:54.322Z,16.50
2023-05-23T17:13:20.712Z,17.02
2023-05-23T17:15:47.127Z,16.83
2023-05-23T17:18:13.521Z,16.63
2023-05-23T17:20:39.923Z,16.29
2023-05-23T17:23:06.296Z,15.56
2023-05-23T17:25:32.661Z,16.09
2023-05-23T17:27:59.023Z,15.97
2023-05-23T17:30:25.398Z,15.72
2023-05-23T17:32:51.796Z,15.89
2023-05-23T17:35:18.233Z,15.36
2023-05-23T17:37:44.607Z,15.35
2023-05-23T17:40:11.001Z,14.98
2023-05-23T17:42:37.385Z,15.44
2023-05-23T17:45:03.785Z,15.29
2023-05-23T17:47:30.193Z,15.04
2023-05-23T17:49:56.607Z,15.10
2023-05-23T17:52:23.022Z,15.10
2023-05-23T17:54:49.405Z,16.99
2023-05-23T17:57:15.758Z,15.89
2023-05-23T17:59:42.168Z,14.86
2023-05-23T18:02:08.523Z,15.31
2023-05-23T18:04:35.021Z,14.97
2023-05-23T18:07:01.516Z,14.94
2023-05-23T18:09:27.905Z,14.46
2023-05-23T18:11:54.272Z,14.87
2023-05-23T18:14:20.694Z,14.81
2023-05-23T18:16:47.106Z,14.73
2023-05-23T18:19:13.549Z,14.86
2023-05-23T18:21:39.918Z,14.15
2023-05-23T18:24:06.293Z,13.87
2023-05-23T18:26:32.662Z,13.74
2023-05-23T18:28:59.050Z,13.70
2023-05-23T18:31:25.414Z,13.69
2023-05-23T18:33:51.856Z,14.07
2023-05-23T18:36:18.260Z,13.71
2023-05-23T18:38:44.740Z,13.49
2023-05-23T18:41:13.292Z,13.28
2023-05-23T18:43:41.051Z,13.73
2023-05-23T18:46:07.474Z,14.18
2023-05-23T18:48:35.789Z,13.67
2023-05-23T18:51:02.493Z,13.56
2023-05-23T18:53:28.855Z,13.54
2023-05-23T18:55:55.243Z,13.21
2023-05-23T18:58:21.623Z,13.33
2023-05-23T19:00:47.993Z,13.73
2023-05-23T19:03:14.463Z,13.70
2023-05-23T19:05:40.944Z,13.19
2023-05-23T19:08:07.416Z,13.33
2023-05-23T19:10:33.797Z,13.44
2023-05-23T19:13:00.186Z,13.44
2023-05-23T19:15:26.545Z,13.58
2023-05-23T19:17:52.939Z,13.19
2023-05-23T19:20:19.320Z,13.67
2023-05-23T19:22:51.496Z,13.44
2023-05-23T19:25:18.782Z,13.38
2023-05-23T19:27:45.138Z,12.71
2023-05-23T19:30:11.546Z,12.58
2023-05-23T19:32:38.019Z,13.11
2023-05-23T19:35:04.564Z,13.45
2023-05-23T19:37:30.950Z,13.06
2023-05-23T19:39:57.301Z,13.72
2023-05-23T19:42:23.684Z,13.61
2023-05-23T19:44:50.065Z,13.63
2023-05-23T19:47:16.449Z,13.55
2023-05-23T19:49:42.814Z,13.25
2023-05-23T19:52:09.171Z,13.29
2023-05-23T19:54:35.565Z,13.38
2023-05-23T19:57:01.950Z,13.36
2023-05-23T19:59:28.329Z,13.32
2023-05-23T20:01:54.759Z,13.27
2023-05-23T20:04:21.149Z,13.60
2023-05-23T20:06:47.508Z,13.40
2023-05-23T20:09:13.898Z,13.43
2023-05-23T20:11:40.248Z,13.08
2023-05-23T20:14:06.661Z,13.28
2023-05-23T20:16:33.126Z,13.35
2023-05-23T20:18:59.539Z,13.15
2023-05-23T20:21:25.969Z,12.81
2023-05-23T20:23:52.362Z,12.92
2023-05-23T20:26:18.748Z,12.86
2023-05-23T20:28:45.127Z,12.79
2023-05-23T20:31:11.544Z,12.88
2023-05-23T20:33:37.918Z,12.92
2023-05-23T20:36:04.282Z,12.65
2023-05-23T20:38:30.639Z,13.31
2023-05-23T20:40:57.009Z,12.58
2023-05-23T20:43:23.380Z,12.67
2023-05-23T20:45:49.740Z,13.40
2023-05-23T20:48:16.155Z,12.69
2023-05-23T20:50:42.797Z,13.04
2023-05-23T20:53:09.373Z,12.84
2023-05-23T20:55:35.760Z,12.32
2023-05-23T20:58:02.136Z,12.87
2023-05-23T21:00:28.490Z,12.95
2023-05-23T21:02:54.944Z,12.85
2023-05-23T21:05:21.357Z,12.99
2023-05-23T21:07:47.733Z,13.28
2023-05-23T21:10:14.101Z,12.89
2023-05-23T21:12:40.482Z,12.34
2023-05-23T21:15:06.842Z,12.53
2023-05-23T21:17:33.218Z,12.26
2023-05-23T21:19:59.612Z,12.55
2023-05-23T21:22:25.977Z,12.77
2023-05-23T21:24:52.340Z,12.85
2023-05-23T21:27:18.701Z,12.88
2023-05-23T21:29:45.092Z,12.90
2023-05-23T21:32:11.449Z,13.16
2023-05-23T21:34:37.823Z,13.22
2023-05-23T21:37:04.192Z,13.93
2023-05-23T21:39:42.992Z,13.68
2023-05-23T21:42:16.815Z,13.75
2023-05-23T21:44:43.180Z,13.81
2023-05-23T21:47:09.548Z,13.53
2023-05-23T21:49:35.929Z,13.52
2023-05-23T21:52:02.281Z,13.02
2023-05-23T21:54:28.656Z,12.65
2023-05-23T21:56:55.076Z,12.68
2023-05-23T21:59:21.446Z,12.06
2023-05-23T22:01:47.822Z,12.00
2023-05-23T22:04:14.196Z,12.14
2023-05-23T22:06:40.561Z,11.39
2023-05-23T22:09:06.925Z,11.30
2023-05-23T22:11:33.307Z,11.43
2023-05-23T22:13:59.682Z,11.58
2023-05-23T22:16:26.127Z,10.96
2023-05-23T22:18:52.529Z,11.37
2023-05-23T22:21:18.919Z,11.35
2023-05-23T22:23:45.298Z,11.15
2023-05-23T22:26:11.681Z,11.28
2023-05-23T22:28:38.066Z,10.83
2023-05-23T22:31:04.507Z,11.61
2023-05-23T22:33:30.915Z,11.71
2023-05-23T22:35:57.272Z,11.49
2023-05-23T22:38:23.653Z,11.57
2023-05-23T22:40:50.028Z,11.67
2023-05-23T22:43:16.399Z,11.80
2023-05-23T22:45:42.805Z,12.03
2023-05-23T22:48:09.195Z,11.88
2023-05-23T22:50:35.632Z,11.82
2023-05-23T22:53:01.986Z,11.83
2023-05-23T22:55:28.352Z,11.93
2023-05-23T22:57:54.708Z,12.36
2023-05-23T23:00:21.086Z,12.68
2023-05-23T23:02:47.540Z,12.68
2023-05-23T23:05:13.978Z,12.22
2023-05-23T23:07:40.368Z,12.25
2023-05-23T23:10:06.735Z,11.83
2023-05-23T23:12:33.101Z,12.31
2023-05-23T23:14:59.482Z,12.03
2023-05-23T23:17:25.877Z,12.08
2023-05-23T23:19:52.241Z,11.89
2023-05-23T23:22:18.624Z,12.39
2023-05-23T23:24:45.047Z,12.01
2023-05-23T23:27:11.433Z,11.61
2023-05-23T23:29:37.797Z,12.05
2023-05-23T23:32:04.143Z,12.18
2023-05-23T23:34:30.535Z,11.82
2023-05-23T23:36:56.937Z,11.76
2023-05-23T23:39:23.307Z,11.84
2023-05-23T23:41:49.660Z,11.46
2023-05-23T23:44:16.008Z,11.34
2023-05-23T23:46:42.434Z,11.93
2023-05-23T23:49:08.799Z,12.02
2023-05-23T23:51:35.145Z,11.78
2023-05-23T23:54:01.513Z,11.82
2023-05-23T23:56:27.878Z,11.89
2023-05-23T23:58:54.275Z,12.05
